Scroll down
FLIGHT INFORMATION
American Airlines

AAL615

At Arrival Gate

KPHX
 KORD
DATE: 2021-02-13
GATE: B25
GATE DEPARTURE: 23:44
TAKEOFF: 23:53
DATE: 2021-02-14
GATE:  -
LANDING: 02:34
GATE ARRIVAL: 02:45
FLIGHT DATA
Crew: 
Speed: 
493 kts
Altitude: 
41,018 ft
Stage Length: 
1,249.1 nm
Block Time: 
3 hrs
Flight Time: 
2.7 hrs
Fuel Used: 
37,956 lb
Cleared Route: KPHX WIVLA HIRVU ZIDOG OXYGN ZILUB FORPE LALUZ SJN ABQ FTI KENTO DRAWL GCK SLN AGENT KIDER IRK LOAMY KEOKK BDF BENKY NEWRK HAZIL RW28C
TRACK DATA
50,000 ft 1,000 kts
AIRCRAFT INFO AND CUMULATIVE STATS
Aircraft Type: 
B772
Registration: 
SELCAL: 
LPQS
MSN/LN: 
29579 / 190
Operator: 
Total Flights: 
14
Total Block Time: 
66 hrs
Total Flight Time: 
61.4 hrs
Total Fuel Used: 
904,109 lb
DATALINK LOG | Newest first | Current as of: 2022-11-26 09:48:20
LABEL SEQUENCE CONTENT Dn/Up
QD465902:45 19.3▼ Dn
QC354902:34▼ Dn
2U0210KORD 140151Z 32011KT 10SM CLR M16/M21 A3030 RMK AO2 SLP279 T11611206▲ Up
2S0318KORD▼ Dn
2U0009KORD 140051Z 32011KT 10SM CLR M16/M20 A3030 RMK AO2 SLP276 T11561200▲ Up
2S0116KORD▼ Dn
2U5910KORD 140051Z 32011KT 10SM CLR M16/M20 A3030 RMK AO2 SLP276 T11561200▲ Up
2S0015KORD▼ Dn
UM2125724KORD ATIS - ORD ATIS INFO H 0251Z. 35011KT 10SM BKN050 OVC085 M12/M18 A3039 (THREE ZERO THREE NINER) RMK AO2 SLP307 50000. ARR EXP VECTORS ILS RWY 28C APCH. READBACK ALL RWY HOLD SHORT INSTRUCTIONS. DEPS EXP RWYS 22L, 28R FROM NOVEMBER 5 9750 FT AVL. NOTAMS... RWY 4L, 22R CLSD, RWY 9L, 27R CLSD, RWY 9R, 27L CLSD, RWY 10R, 28L CLSD. USE CAUTION FOR MEN AND EQUIP AT NUMEROUS SITES ON THE FIELD. CENTRAL DEICING FACILITY PROCEDURES IN EFFECT.. FOR CD GND METERING AND GC CONTACT ORD ON FREQ 121.9. ...ADVS YOU HAVE INFO H.▲ Up
DM795714 ATIS KORD A▼ Dn
2U5646KORD 140051Z 32011KT 10SM CLR M16/M20 A3030 RMK AO2 SLP276 T11561200▲ Up
2S5712KORD▼ Dn
QB551623:53▼ Dn
QA460723:44 57.3▼ Dn
A33410CLEARED TO KORD VIA FORPE1 ABQ FTI J18 SLN J96 KIDER J96 IRK BDF7. SQUAWK 1045.▲ Up
5U3346KORD 140332Z 32012G18KT 10SM BKN035 M14/M18 A3027▲ Up
2U3342KPHX 132251Z 23020G25KT 10SM FEW080 FEW130 SCT230 SCT270 22/02 A2962 RMK AO2 PK WND 22030/2240 SLP019 T02170017 $▲ Up
5S3408KORD▼ Dn
2S3407KPHX▼ Dn
Q03300[LINK ACK]▲ Up
Q03300[LINK TEST]▼ Dn


AIRCRAFT HISTORY
FLIGHT DATE FLIGHT NO. ORIGIN DESTINATION CLEARED ROUTE BLOCK TIME FLIGHT TIME FUEL USED PILOT
2021-05-21AAL519KDFW KTPA KDFW TREXX JOLEN PAXTN HANUH LYING FORCK ELD MEI CABLO HEVVN LEGGT TABIR DIPAY DARBS FOOXX DADPE BAYZZ WOBKI LAGOO RW01L2.5 hrs2.2 hrs31,837 lbChemtrails
2021-03-21AAL79EGLL KDFW EGLL D132B D254K WODNB D101H CPT KENET UGNUS OKTAD DOBEM TOPRO MEDOG FOXLA ABAPO PEMOB LANPI BAKUR DOGAL 5520N 5630N 5640N 5550N LOMSI ANCER POLTY KENLU PEPLA DERLO WWSHR DUTSH KLYNE PXV PENBE HUMBO RUSLR LIT FEWWW PROWD LETHR ARMYY SEEVR BRDJE COVIE LEMYN PITHY STONZ ROCKZ JEKIL DAYZZ RW35C9.5 hrs9.2 hrs138,941 lbGeorge
2021-03-20AAL9716KPHX EGLL KPHX SPRKY GOALY POCCK MRBIL YOTES JARPA RSK PUB OBH KP78G KP87K SSM MT ROBBE EXPOS JANJO 5650N 5840N 5930N 5920N AGORI OSBOX MIMKU KELLY CASEL PENIL WAL EKLAD MOGTA NANTI NUGRA TOBID SOPIT WCONB BNN CI27L RW27L10.2 hrs9.8 hrs150,499 lbGeorge
2021-03-13AAL421PHNL KPHX PHNL MKK BLUSH SESXI ALICA EBBER ELOYI ERROT ETNIC ETECO EDSEL EDTOO ELKEY LAX PDZ YCDIL WBERG BLH SCOLE SPINK SNRRA SWOON HYDRR GEELA AGGLA CHAVO LEMOE JAGAL RW265.5 hrs5.1 hrs74,389 lbGeorge
2021-03-13AAL692KPHX PHNL KPHX FUTEP AZCRD USEYE MASVE OAKLI KEENS IZZZO CULTS HRRBR CURIV DECAS PSP LAX DINTY ADUMM CUNDU BILLO BEKME BOARD BITTA BOWSZ HISPO BAMBO IHNET INOYI DZURA OOKAH COZES RW08L6.3 hrs6 hrs86,048 lbGeorge
2021-03-10AAL453KORD KPHX KORD OLINN OREOS OBENE OGALE KP66E KAWWA KD57Y PUB KD45U GUP KIRKM SLIDR TINIZ PAYSO EAGUL HOMRR VNNOM ESDEE BASSL DERVL JAGAL RW263.4 hrs3.2 hrs46,004 lbGeorge
2021-03-07AAL575KPHX KORD KPHX SPRKY FORPE LALUZ SJN ABQ FTI KENTO DRAWL GCK SLN AGENT KIDER IRK LOAMY KEOKK DRAMS RYELY BFORD BYLAW BENKY NEWRK AHSTN PETAH JORJO MONKZ TONIE RRUDA RW10C3.2 hrs2.8 hrs40,748 lbGeorge
2021-03-07AAL548KORD KPHX KORD PEKUE PIPPN ELYNA BACNN STJ SLN GCK CIM ZUN DOJOE SLIDR TINIZ PAYSO EAGUL HOMRR BOHTX GEENO QUENY HINEY OBASE JAMIL RW083.4 hrs3.1 hrs42,981 lbGeorge
2021-02-23AAL2343KLAX KORD KLAX HIIPR KLIPR KEGGS COOPP ORCKA NNAVY BLAZN LAS BAWER LARVE EKR KD66U BFF ONL FOD MYRRS SAAYY BENNR JBAGS BHAWK STNLE CUUPP CHMPN CLSBY FYTTE MOTRR COGSS MADII SOOLU JORJO MONKZ TONIE HAZIL RW28C3.8 hrs3.3 hrs47,295 lbGeorge
2021-02-18AAL1163KORD KLAX KORD MYKIE MONNY JORDY OBH HCT FQF HBU LRAIN TBC JASSE AREAF ESGEE DNERO SLLRS FLOJO SALYY GLESN ANJLL CAANN BOYEL CRCUS RW25L3.8 hrs3.6 hrs52,895 lbDan Downs
2021-02-14AAL1159KMIA KORD KMIA SENOY CIMBA FORKK VVMAX HEDLY STYMY ZERBO DUCEN OVENP FEMON VIYAP OLBEC ISUZO GURGE FISHO QUIWE BENBY DOOGE HAPKI TONIO OCASE HEVAN BONNT FRIDG WATSN HAUPO MKITA PRISE HULLS STYLE DWEEB CENAK HAZIL RW28C2.7 hrs2.3 hrs35,738 lbGeorge
2021-02-14AAL1635KORD KMIA KORD CMSKY CARYN CYBIL PXV BNA LGC GOONS BULZI SNAPY NICKI BITNY ENDEW JUULI BAARY CYY DEEDS SSCOT RUBOE WALIP LECIT COPRA RW08R3 hrs2.6 hrs38,525 lbGeorge
2021-02-13AAL615KPHX KORD KPHX WIVLA HIRVU ZIDOG OXYGN ZILUB FORPE LALUZ SJN ABQ FTI KENTO DRAWL GCK SLN AGENT KIDER IRK LOAMY KEOKK BDF BENKY NEWRK HAZIL RW28C3 hrs2.7 hrs37,956 lbGeorge
2021-02-13AAL693PHNL KPHX PHNL MKK BLUSH SESXI ALICA EBBER ELOYI ERROT ETNIC ETECO EDSEL EDTOO ELKEY SXC BLH SCOLE SPINK SNRRA SWOON HYDRR GEELA PUNNT TEICH TESLE FALGO CAGOR JAMIL RW085.8 hrs5.5 hrs80,251 lbGeorge